sensor_id;sensor_type;location;lat;lon;timestamp;temperature;humidity
20726;DHT22;10524;48.132;8.518;2023-05-07T00:00:25;9.00;99.90
20726;DHT22;10524;48.132;8.518;2023-05-07T00:02:51;9.00;99.90
20726;DHT22;10524;48.132;8.518;2023-05-07T00:05:17;9.00;99.90
20726;DHT22;10524;48.132;8.518;2023-05-07T00:07:43;8.90;99.90
20726;DHT22;10524;48.132;8.518;2023-05-07T00:10:09;8.90;99.90
20726;DHT22;10524;48.132;8.518;2023-05-07T00:12:35;8.90;99.90
20726;DHT22;10524;48.132;8.518;2023-05-07T00:15:05;8.90;99.90
20726;DHT22;10524;48.132;8.518;2023-05-07T00:17:32;8.90;99.90
20726;DHT22;10524;48.132;8.518;2023-05-07T00:19:58;8.80;99.90
20726;DHT22;10524;48.132;8.518;2023-05-07T00:22:24;8.80;99.90
20726;DHT22;10524;48.132;8.518;2023-05-07T00:24:50;8.80;99.90
20726;DHT22;10524;48.132;8.518;2023-05-07T00:27:16;8.70;99.90
20726;DHT22;10524;48.132;8.518;2023-05-07T00:29:41;8.60;99.90
20726;DHT22;10524;48.132;8.518;2023-05-07T00:32:08;8.60;99.90
20726;DHT22;10524;48.132;8.518;2023-05-07T00:34:34;8.60;99.90
20726;DHT22;10524;48.132;8.518;2023-05-07T00:37:01;8.60;99.90
20726;DHT22;10524;48.132;8.518;2023-05-07T00:39:27;8.60;99.90
20726;DHT22;10524;48.132;8.518;2023-05-07T00:41:52;8.50;99.90
20726;DHT22;10524;48.132;8.518;2023-05-07T00:44:18;8.50;99.90
20726;DHT22;10524;48.132;8.518;2023-05-07T00:46:45;8.60;99.90
20726;DHT22;10524;48.132;8.518;2023-05-07T00:49:14;8.50;99.90
20726;DHT22;10524;48.132;8.518;2023-05-07T00:51:40;8.50;99.90
20726;DHT22;10524;48.132;8.518;2023-05-07T00:54:06;8.50;99.90
20726;DHT22;10524;48.132;8.518;2023-05-07T00:56:33;8.50;99.90
20726;DHT22;10524;48.132;8.518;2023-05-07T00:59:01;8.50;99.90
20726;DHT22;10524;48.132;8.518;2023-05-07T01:01:27;8.60;99.90
20726;DHT22;10524;48.132;8.518;2023-05-07T01:03:53;8.60;99.90
20726;DHT22;10524;48.132;8.518;2023-05-07T01:06:20;8.60;99.90
20726;DHT22;10524;48.132;8.518;2023-05-07T01:08:47;8.60;99.90
20726;DHT22;10524;48.132;8.518;2023-05-07T01:11:15;8.60;99.90
20726;DHT22;10524;48.132;8.518;2023-05-07T01:13:42;8.60;99.90
20726;DHT22;10524;48.132;8.518;2023-05-07T01:16:09;8.60;99.90
20726;DHT22;10524;48.132;8.518;2023-05-07T01:18:35;8.60;99.90
20726;DHT22;10524;48.132;8.518;2023-05-07T01:21:01;8.50;99.90
20726;DHT22;10524;48.132;8.518;2023-05-07T01:23:29;8.50;99.90
20726;DHT22;10524;48.132;8.518;2023-05-07T01:25:56;8.50;99.90
20726;DHT22;10524;48.132;8.518;2023-05-07T01:28:22;8.50;99.90
20726;DHT22;10524;48.132;8.518;2023-05-07T01:30:54;8.40;99.90
20726;DHT22;10524;48.132;8.518;2023-05-07T01:33:22;8.40;99.90
20726;DHT22;10524;48.132;8.518;2023-05-07T01:35:52;8.30;99.90
20726;DHT22;10524;48.132;8.518;2023-05-07T01:38:19;8.30;99.90
20726;DHT22;10524;48.132;8.518;2023-05-07T01:40:46;8.30;99.90
20726;DHT22;10524;48.132;8.518;2023-05-07T01:43:12;8.30;99.90
20726;DHT22;10524;48.132;8.518;2023-05-07T01:45:38;8.40;99.90
20726;DHT22;10524;48.132;8.518;2023-05-07T01:48:06;8.40;99.90
20726;DHT22;10524;48.132;8.518;2023-05-07T01:50:32;8.30;99.90
20726;DHT22;10524;48.132;8.518;2023-05-07T01:52:59;8.30;99.90
20726;DHT22;10524;48.132;8.518;2023-05-07T01:55:25;8.30;99.90
20726;DHT22;10524;48.132;8.518;2023-05-07T01:57:50;8.20;99.90
20726;DHT22;10524;48.132;8.518;2023-05-07T02:00:17;8.20;99.90
20726;DHT22;10524;48.132;8.518;2023-05-07T02:02:43;8.20;99.90
20726;DHT22;10524;48.132;8.518;2023-05-07T02:05:08;8.10;99.90
20726;DHT22;10524;48.132;8.518;2023-05-07T02:07:35;8.10;99.90
20726;DHT22;10524;48.132;8.518;2023-05-07T02:10:01;8.10;99.90
20726;DHT22;10524;48.132;8.518;2023-05-07T02:12:27;8.10;99.90
20726;DHT22;10524;48.132;8.518;2023-05-07T02:14:52;8.10;99.90
20726;DHT22;10524;48.132;8.518;2023-05-07T02:17:18;8.00;99.90
20726;DHT22;10524;48.132;8.518;2023-05-07T02:19:44;8.00;99.90
20726;DHT22;10524;48.132;8.518;2023-05-07T02:22:10;7.90;99.90
20726;DHT22;10524;48.132;8.518;2023-05-07T02:24:36;7.90;99.90
20726;DHT22;10524;48.132;8.518;2023-05-07T02:27:01;7.80;99.90
20726;DHT22;10524;48.132;8.518;2023-05-07T02:29:28;7.60;99.90
20726;DHT22;10524;48.132;8.518;2023-05-07T02:31:54;7.50;99.90
20726;DHT22;10524;48.132;8.518;2023-05-07T02:34:21;7.40;99.90
20726;DHT22;10524;48.132;8.518;2023-05-07T02:36:46;7.30;99.90
20726;DHT22;10524;48.132;8.518;2023-05-07T02:39:13;7.20;99.90
20726;DHT22;10524;48.132;8.518;2023-05-07T02:41:39;7.20;99.90
20726;DHT22;10524;48.132;8.518;2023-05-07T02:44:05;7.30;99.90
20726;DHT22;10524;48.132;8.518;2023-05-07T02:46:31;7.20;99.90
20726;DHT22;10524;48.132;8.518;2023-05-07T02:48:57;7.20;99.90
20726;DHT22;10524;48.132;8.518;2023-05-07T02:51:23;7.20;99.90
20726;DHT22;10524;48.132;8.518;2023-05-07T02:53:49;7.10;99.90
20726;DHT22;10524;48.132;8.518;2023-05-07T02:56:15;7.10;99.90
20726;DHT22;10524;48.132;8.518;2023-05-07T02:58:41;7.20;99.90
20726;DHT22;10524;48.132;8.518;2023-05-07T03:01:08;7.10;99.90
20726;DHT22;10524;48.132;8.518;2023-05-07T03:03:34;7.10;99.90
20726;DHT22;10524;48.132;8.518;2023-05-07T03:06:00;7.00;99.90
20726;DHT22;10524;48.132;8.518;2023-05-07T03:08:26;7.10;99.90
20726;DHT22;10524;48.132;8.518;2023-05-07T03:10:52;7.10;99.90
20726;DHT22;10524;48.132;8.518;2023-05-07T03:13:18;7.10;99.90
20726;DHT22;10524;48.132;8.518;2023-05-07T03:15:44;6.90;99.90
20726;DHT22;10524;48.132;8.518;2023-05-07T03:18:10;6.90;99.90
20726;DHT22;10524;48.132;8.518;2023-05-07T03:20:36;6.90;99.90
20726;DHT22;10524;48.132;8.518;2023-05-07T03:23:02;6.80;99.90
20726;DHT22;10524;48.132;8.518;2023-05-07T03:25:28;6.80;99.90
20726;DHT22;10524;48.132;8.518;2023-05-07T03:27:55;6.70;99.90
20726;DHT22;10524;48.132;8.518;2023-05-07T03:30:21;6.60;99.90
20726;DHT22;10524;48.132;8.518;2023-05-07T03:32:47;6.60;99.90
20726;DHT22;10524;48.132;8.518;2023-05-07T03:35:13;6.50;99.90
20726;DHT22;10524;48.132;8.518;2023-05-07T03:37:40;6.50;99.90
20726;DHT22;10524;48.132;8.518;2023-05-07T03:40:06;6.50;99.90
20726;DHT22;10524;48.132;8.518;2023-05-07T03:42:33;6.50;99.90
20726;DHT22;10524;48.132;8.518;2023-05-07T03:44:58;6.60;99.90
20726;DHT22;10524;48.132;8.518;2023-05-07T03:47:24;6.60;99.90
20726;DHT22;10524;48.132;8.518;2023-05-07T03:49:50;6.60;99.90
20726;DHT22;10524;48.132;8.518;2023-05-07T03:52:18;6.60;99.90
20726;DHT22;10524;48.132;8.518;2023-05-07T03:54:49;6.70;99.90
20726;DHT22;10524;48.132;8.518;2023-05-07T03:57:15;6.70;99.90
20726;DHT22;10524;48.132;8.518;2023-05-07T03:59:40;6.70;99.90
20726;DHT22;10524;48.132;8.518;2023-05-07T04:02:06;6.70;99.90
20726;DHT22;10524;48.132;8.518;2023-05-07T04:04:32;6.70;99.90
20726;DHT22;10524;48.132;8.518;2023-05-07T04:06:58;6.60;99.90
20726;DHT22;10524;48.132;8.518;2023-05-07T04:09:25;6.60;99.90
20726;DHT22;10524;48.132;8.518;2023-05-07T04:11:51;6.60;99.90
20726;DHT22;10524;48.132;8.518;2023-05-07T04:14:16;6.60;99.90
20726;DHT22;10524;48.132;8.518;2023-05-07T04:16:42;6.70;99.90
20726;DHT22;10524;48.132;8.518;2023-05-07T04:19:11;6.80;99.90
20726;DHT22;10524;48.132;8.518;2023-05-07T04:21:36;7.00;99.90
20726;DHT22;10524;48.132;8.518;2023-05-07T04:24:05;7.30;99.90
20726;DHT22;10524;48.132;8.518;2023-05-07T04:26:31;7.40;99.90
20726;DHT22;10524;48.132;8.518;2023-05-07T04:28:57;7.50;99.90
20726;DHT22;10524;48.132;8.518;2023-05-07T04:31:24;7.50;99.90
20726;DHT22;10524;48.132;8.518;2023-05-07T04:33:50;7.60;99.90
20726;DHT22;10524;48.132;8.518;2023-05-07T04:36:17;7.70;99.90
20726;DHT22;10524;48.132;8.518;2023-05-07T04:38:43;7.80;99.90
20726;DHT22;10524;48.132;8.518;2023-05-07T04:41:09;8.10;99.90
20726;DHT22;10524;48.132;8.518;2023-05-07T04:43:35;8.20;99.90
20726;DHT22;10524;48.132;8.518;2023-05-07T04:46:01;8.30;99.90
20726;DHT22;10524;48.132;8.518;2023-05-07T04:48:27;8.30;99.90
20726;DHT22;10524;48.132;8.518;2023-05-07T04:50:54;8.50;99.90
20726;DHT22;10524;48.132;8.518;2023-05-07T04:53:20;8.70;99.90
20726;DHT22;10524;48.132;8.518;2023-05-07T04:55:46;9.00;99.90
20726;DHT22;10524;48.132;8.518;2023-05-07T04:58:12;9.10;99.90
20726;DHT22;10524;48.132;8.518;2023-05-07T05:00:39;9.10;99.90
20726;DHT22;10524;48.132;8.518;2023-05-07T05:03:06;9.20;99.90
20726;DHT22;10524;48.132;8.518;2023-05-07T05:05:32;9.60;99.90
20726;DHT22;10524;48.132;8.518;2023-05-07T05:07:58;10.20;99.90
20726;DHT22;10524;48.132;8.518;2023-05-07T05:10:24;10.40;99.90
20726;DHT22;10524;48.132;8.518;2023-05-07T05:12:50;11.20;99.90
20726;DHT22;10524;48.132;8.518;2023-05-07T05:15:16;12.10;99.90
20726;DHT22;10524;48.132;8.518;2023-05-07T05:17:42;13.10;99.90
20726;DHT22;10524;48.132;8.518;2023-05-07T05:20:08;14.40;99.90
20726;DHT22;10524;48.132;8.518;2023-05-07T05:22:36;14.90;99.90
20726;DHT22;10524;48.132;8.518;2023-05-07T05:25:02;14.30;99.90
20726;DHT22;10524;48.132;8.518;2023-05-07T05:27:28;14.10;99.90
20726;DHT22;10524;48.132;8.518;2023-05-07T05:29:54;14.50;99.90
20726;DHT22;10524;48.132;8.518;2023-05-07T05:32:20;15.50;99.90
20726;DHT22;10524;48.132;8.518;2023-05-07T05:34:46;16.70;99.90
20726;DHT22;10524;48.132;8.518;2023-05-07T05:37:12;18.20;99.90
20726;DHT22;10524;48.132;8.518;2023-05-07T05:39:38;18.90;99.90
20726;DHT22;10524;48.132;8.518;2023-05-07T05:42:04;19.10;99.90
20726;DHT22;10524;48.132;8.518;2023-05-07T05:44:30;19.10;99.90
20726;DHT22;10524;48.132;8.518;2023-05-07T05:46:56;18.70;99.90
20726;DHT22;10524;48.132;8.518;2023-05-07T05:49:23;18.20;99.90
20726;DHT22;10524;48.132;8.518;2023-05-07T05:51:48;18.10;99.90
20726;DHT22;10524;48.132;8.518;2023-05-07T05:54:14;17.70;99.90
20726;DHT22;10524;48.132;8.518;2023-05-07T05:56:42;18.30;99.90
20726;DHT22;10524;48.132;8.518;2023-05-07T05:59:08;18.90;99.90
20726;DHT22;10524;48.132;8.518;2023-05-07T06:01:34;18.60;99.90
20726;DHT22;10524;48.132;8.518;2023-05-07T06:04:00;17.60;99.90
20726;DHT22;10524;48.132;8.518;2023-05-07T06:06:26;16.60;99.90
20726;DHT22;10524;48.132;8.518;2023-05-07T06:08:52;16.00;99.90
20726;DHT22;10524;48.132;8.518;2023-05-07T06:11:19;15.90;99.90
20726;DHT22;10524;48.132;8.518;2023-05-07T06:13:45;16.30;99.90
20726;DHT22;10524;48.132;8.518;2023-05-07T06:16:11;17.30;99.90
20726;DHT22;10524;48.132;8.518;2023-05-07T06:18:37;18.40;99.90
20726;DHT22;10524;48.132;8.518;2023-05-07T06:21:02;19.40;99.90
20726;DHT22;10524;48.132;8.518;2023-05-07T06:23:28;19.50;99.90
20726;DHT22;10524;48.132;8.518;2023-05-07T06:25:54;19.90;99.90
20726;DHT22;10524;48.132;8.518;2023-05-07T06:28:20;20.90;99.90
20726;DHT22;10524;48.132;8.518;2023-05-07T06:30:46;20.90;99.90
20726;DHT22;10524;48.132;8.518;2023-05-07T06:33:12;20.60;99.90
20726;DHT22;10524;48.132;8.518;2023-05-07T06:35:38;19.80;99.90
20726;DHT22;10524;48.132;8.518;2023-05-07T06:38:04;20.10;99.90
20726;DHT22;10524;48.132;8.518;2023-05-07T06:40:30;20.10;99.90
20726;DHT22;10524;48.132;8.518;2023-05-07T06:42:56;19.40;99.90
20726;DHT22;10524;48.132;8.518;2023-05-07T06:45:22;18.90;99.90
20726;DHT22;10524;48.132;8.518;2023-05-07T06:47:48;18.70;99.90
20726;DHT22;10524;48.132;8.518;2023-05-07T06:50:13;19.10;99.90
20726;DHT22;10524;48.132;8.518;2023-05-07T06:52:42;19.50;99.90
20726;DHT22;10524;48.132;8.518;2023-05-07T06:55:08;19.50;99.90
20726;DHT22;10524;48.132;8.518;2023-05-07T06:57:34;20.80;99.90
20726;DHT22;10524;48.132;8.518;2023-05-07T07:00:00;22.70;99.90
20726;DHT22;10524;48.132;8.518;2023-05-07T07:02:26;24.20;99.90
20726;DHT22;10524;48.132;8.518;2023-05-07T07:04:51;25.70;99.90
20726;DHT22;10524;48.132;8.518;2023-05-07T07:07:17;27.10;99.90
20726;DHT22;10524;48.132;8.518;2023-05-07T07:09:43;27.90;99.90
20726;DHT22;10524;48.132;8.518;2023-05-07T07:12:09;27.50;99.90
20726;DHT22;10524;48.132;8.518;2023-05-07T07:14:34;26.40;99.90
20726;DHT22;10524;48.132;8.518;2023-05-07T07:17:00;24.50;99.90
20726;DHT22;10524;48.132;8.518;2023-05-07T07:19:26;23.80;99.90
20726;DHT22;10524;48.132;8.518;2023-05-07T07:21:52;25.10;99.90
20726;DHT22;10524;48.132;8.518;2023-05-07T07:24:17;23.90;99.90
20726;DHT22;10524;48.132;8.518;2023-05-07T07:26:44;23.20;99.90
20726;DHT22;10524;48.132;8.518;2023-05-07T07:29:10;24.50;99.90
20726;DHT22;10524;48.132;8.518;2023-05-07T07:31:36;23.30;99.90
20726;DHT22;10524;48.132;8.518;2023-05-07T07:34:02;23.30;99.90
20726;DHT22;10524;48.132;8.518;2023-05-07T07:36:27;23.10;99.90
20726;DHT22;10524;48.132;8.518;2023-05-07T07:38:54;22.00;99.90
20726;DHT22;10524;48.132;8.518;2023-05-07T07:41:20;20.90;99.90
20726;DHT22;10524;48.132;8.518;2023-05-07T07:43:46;20.20;99.90
20726;DHT22;10524;48.132;8.518;2023-05-07T07:46:12;19.70;99.90
20726;DHT22;10524;48.132;8.518;2023-05-07T07:48:38;19.30;99.90
20726;DHT22;10524;48.132;8.518;2023-05-07T07:51:04;19.20;99.90
20726;DHT22;10524;48.132;8.518;2023-05-07T07:53:30;19.10;99.90
20726;DHT22;10524;48.132;8.518;2023-05-07T07:55:56;19.10;99.90
20726;DHT22;10524;48.132;8.518;2023-05-07T07:58:21;18.90;99.90
20726;DHT22;10524;48.132;8.518;2023-05-07T08:00:47;18.50;99.90
20726;DHT22;10524;48.132;8.518;2023-05-07T08:03:14;20.10;99.90
20726;DHT22;10524;48.132;8.518;2023-05-07T08:05:42;22.60;99.90
20726;DHT22;10524;48.132;8.518;2023-05-07T08:08:08;23.20;99.90
20726;DHT22;10524;48.132;8.518;2023-05-07T08:10:34;23.30;99.90
20726;DHT22;10524;48.132;8.518;2023-05-07T08:13:04;22.90;99.90
20726;DHT22;10524;48.132;8.518;2023-05-07T08:15:30;23.80;99.90
20726;DHT22;10524;48.132;8.518;2023-05-07T08:17:57;23.60;99.90
20726;DHT22;10524;48.132;8.518;2023-05-07T08:20:23;23.80;99.90
20726;DHT22;10524;48.132;8.518;2023-05-07T08:22:49;24.80;99.90
20726;DHT22;10524;48.132;8.518;2023-05-07T08:25:15;25.70;99.90
20726;DHT22;10524;48.132;8.518;2023-05-07T08:27:41;25.50;99.90
20726;DHT22;10524;48.132;8.518;2023-05-07T08:30:07;24.60;99.90
20726;DHT22;10524;48.132;8.518;2023-05-07T08:32:33;25.70;99.90
20726;DHT22;10524;48.132;8.518;2023-05-07T08:34:59;25.10;99.90
20726;DHT22;10524;48.132;8.518;2023-05-07T08:37:25;24.80;99.90
20726;DHT22;10524;48.132;8.518;2023-05-07T08:39:51;24.50;99.90
20726;DHT22;10524;48.132;8.518;2023-05-07T08:42:17;24.60;99.90
20726;DHT22;10524;48.132;8.518;2023-05-07T08:44:45;24.20;99.90
20726;DHT22;10524;48.132;8.518;2023-05-07T08:47:14;24.70;99.90
20726;DHT22;10524;48.132;8.518;2023-05-07T08:49:40;24.50;99.90
20726;DHT22;10524;48.132;8.518;2023-05-07T08:52:06;25.20;99.90
20726;DHT22;10524;48.132;8.518;2023-05-07T08:54:32;26.70;99.90
20726;DHT22;10524;48.132;8.518;2023-05-07T08:56:59;27.20;99.90
20726;DHT22;10524;48.132;8.518;2023-05-07T08:59:26;28.80;99.90
20726;DHT22;10524;48.132;8.518;2023-05-07T09:01:51;30.50;99.90
20726;DHT22;10524;48.132;8.518;2023-05-07T09:04:17;29.90;99.90
20726;DHT22;10524;48.132;8.518;2023-05-07T09:06:43;30.00;99.90
20726;DHT22;10524;48.132;8.518;2023-05-07T09:09:09;28.70;99.90
20726;DHT22;10524;48.132;8.518;2023-05-07T09:11:34;27.10;99.90
20726;DHT22;10524;48.132;8.518;2023-05-07T09:14:00;26.50;99.90
20726;DHT22;10524;48.132;8.518;2023-05-07T09:16:29;26.10;99.90
20726;DHT22;10524;48.132;8.518;2023-05-07T09:18:58;26.70;99.90
20726;DHT22;10524;48.132;8.518;2023-05-07T09:21:24;26.60;99.90
20726;DHT22;10524;48.132;8.518;2023-05-07T09:23:54;26.20;99.90
20726;DHT22;10524;48.132;8.518;2023-05-07T09:26:24;26.20;99.90
20726;DHT22;10524;48.132;8.518;2023-05-07T09:28:50;27.60;99.90
20726;DHT22;10524;48.132;8.518;2023-05-07T09:31:16;29.50;99.90
20726;DHT22;10524;48.132;8.518;2023-05-07T09:33:42;30.90;99.90
20726;DHT22;10524;48.132;8.518;2023-05-07T09:36:09;30.40;99.90
20726;DHT22;10524;48.132;8.518;2023-05-07T09:38:36;30.70;99.90
20726;DHT22;10524;48.132;8.518;2023-05-07T09:41:10;29.70;99.90
20726;DHT22;10524;48.132;8.518;2023-05-07T09:43:38;28.20;99.90
20726;DHT22;10524;48.132;8.518;2023-05-07T09:46:11;27.00;99.90
20726;DHT22;10524;48.132;8.518;2023-05-07T09:48:39;26.40;99.90
20726;DHT22;10524;48.132;8.518;2023-05-07T09:51:36;25.60;99.90
20726;DHT22;10524;48.132;8.518;2023-05-07T09:54:04;25.10;99.90
20726;DHT22;10524;48.132;8.518;2023-05-07T09:56:35;24.60;99.90
20726;DHT22;10524;48.132;8.518;2023-05-07T09:59:03;24.80;99.90
20726;DHT22;10524;48.132;8.518;2023-05-07T10:01:32;24.60;99.90
20726;DHT22;10524;48.132;8.518;2023-05-07T10:03:58;24.50;99.90
20726;DHT22;10524;48.132;8.518;2023-05-07T10:06:25;24.40;99.90
20726;DHT22;10524;48.132;8.518;2023-05-07T10:08:52;24.30;99.90
20726;DHT22;10524;48.132;8.518;2023-05-07T10:11:18;24.20;99.90
20726;DHT22;10524;48.132;8.518;2023-05-07T10:13:46;24.20;99.90
20726;DHT22;10524;48.132;8.518;2023-05-07T10:16:13;24.00;99.90
20726;DHT22;10524;48.132;8.518;2023-05-07T10:18:40;23.80;99.90
20726;DHT22;10524;48.132;8.518;2023-05-07T10:21:20;24.30;99.90
20726;DHT22;10524;48.132;8.518;2023-05-07T10:23:50;24.70;99.90
20726;DHT22;10524;48.132;8.518;2023-05-07T10:26:17;26.20;99.90
20726;DHT22;10524;48.132;8.518;2023-05-07T10:28:49;26.90;99.90
20726;DHT22;10524;48.132;8.518;2023-05-07T10:33:47;25.70;99.90
20726;DHT22;10524;48.132;8.518;2023-05-07T10:36:14;25.20;99.90
20726;DHT22;10524;48.132;8.518;2023-05-07T10:38:40;24.50;99.90
20726;DHT22;10524;48.132;8.518;2023-05-07T10:41:06;24.20;99.90
20726;DHT22;10524;48.132;8.518;2023-05-07T10:43:39;23.70;99.90
20726;DHT22;10524;48.132;8.518;2023-05-07T10:51:27;22.30;99.90
20726;DHT22;10524;48.132;8.518;2023-05-07T10:56:37;21.80;99.90
20726;DHT22;10524;48.132;8.518;2023-05-07T11:01:56;21.10;99.90
20726;DHT22;10524;48.132;8.518;2023-05-07T11:04:25;20.70;99.90
20726;DHT22;10524;48.132;8.518;2023-05-07T11:15:47;19.00;99.90
20726;DHT22;10524;48.132;8.518;2023-05-07T11:17:58;18.50;99.90
20726;DHT22;10524;48.132;8.518;2023-05-07T11:20:53;18.20;99.90
20726;DHT22;10524;48.132;8.518;2023-05-07T11:26:08;17.30;99.90
20726;DHT22;10524;48.132;8.518;2023-05-07T11:28:42;16.90;99.90
20726;DHT22;10524;48.132;8.518;2023-05-07T11:31:08;16.70;99.90
20726;DHT22;10524;48.132;8.518;2023-05-07T11:33:35;16.50;99.90
20726;DHT22;10524;48.132;8.518;2023-05-07T11:36:04;16.10;99.90
20726;DHT22;10524;48.132;8.518;2023-05-07T11:38:34;15.90;99.90
20726;DHT22;10524;48.132;8.518;2023-05-07T11:41:00;15.70;99.90
20726;DHT22;10524;48.132;8.518;2023-05-07T11:43:26;15.30;99.90
20726;DHT22;10524;48.132;8.518;2023-05-07T11:45:52;15.00;99.90
20726;DHT22;10524;48.132;8.518;2023-05-07T11:48:19;14.60;99.90
20726;DHT22;10524;48.132;8.518;2023-05-07T11:50:59;14.20;99.90
20726;DHT22;10524;48.132;8.518;2023-05-07T11:53:26;13.70;99.90
20726;DHT22;10524;48.132;8.518;2023-05-07T11:55:53;13.50;99.90
20726;DHT22;10524;48.132;8.518;2023-05-07T11:58:25;13.20;99.90
20726;DHT22;10524;48.132;8.518;2023-05-07T12:00:54;13.00;99.90
20726;DHT22;10524;48.132;8.518;2023-05-07T12:03:20;12.90;99.90
20726;DHT22;10524;48.132;8.518;2023-05-07T12:05:47;12.80;99.90
20726;DHT22;10524;48.132;8.518;2023-05-07T12:08:16;12.70;99.90
20726;DHT22;10524;48.132;8.518;2023-05-07T12:10:43;12.70;99.90
20726;DHT22;10524;48.132;8.518;2023-05-07T12:13:23;12.70;99.90
20726;DHT22;10524;48.132;8.518;2023-05-07T12:15:53;12.70;99.90
20726;DHT22;10524;48.132;8.518;2023-05-07T12:18:20;12.70;99.90
20726;DHT22;10524;48.132;8.518;2023-05-07T12:20:47;12.70;99.90
20726;DHT22;10524;48.132;8.518;2023-05-07T12:23:14;12.60;99.90
20726;DHT22;10524;48.132;8.518;2023-05-07T12:25:42;12.60;99.90
20726;DHT22;10524;48.132;8.518;2023-05-07T12:28:18;12.50;99.90
20726;DHT22;10524;48.132;8.518;2023-05-07T12:30:47;12.60;99.90
20726;DHT22;10524;48.132;8.518;2023-05-07T12:33:17;12.70;99.90
20726;DHT22;10524;48.132;8.518;2023-05-07T12:35:43;12.60;99.90
20726;DHT22;10524;48.132;8.518;2023-05-07T12:38:13;12.70;99.90
20726;DHT22;10524;48.132;8.518;2023-05-07T12:43:07;12.80;99.90
20726;DHT22;10524;48.132;8.518;2023-05-07T12:45:40;12.80;99.90
20726;DHT22;10524;48.132;8.518;2023-05-07T12:48:06;12.90;99.90
20726;DHT22;10524;48.132;8.518;2023-05-07T12:50:34;13.10;99.90
20726;DHT22;10524;48.132;8.518;2023-05-07T12:53:00;13.20;99.90
20726;DHT22;10524;48.132;8.518;2023-05-07T12:55:31;13.40;99.90
20726;DHT22;10524;48.132;8.518;2023-05-07T12:58:01;13.40;99.90
20726;DHT22;10524;48.132;8.518;2023-05-07T13:00:38;13.50;99.90
20726;DHT22;10524;48.132;8.518;2023-05-07T13:03:04;13.90;99.90
20726;DHT22;10524;48.132;8.518;2023-05-07T13:05:31;14.00;99.90
20726;DHT22;10524;48.132;8.518;2023-05-07T13:07:58;14.20;99.90
20726;DHT22;10524;48.132;8.518;2023-05-07T13:10:24;14.20;99.90
20726;DHT22;10524;48.132;8.518;2023-05-07T13:12:50;14.50;99.90
20726;DHT22;10524;48.132;8.518;2023-05-07T13:15:18;14.70;99.90
20726;DHT22;10524;48.132;8.518;2023-05-07T13:17:44;14.80;99.90
20726;DHT22;10524;48.132;8.518;2023-05-07T13:20:10;14.80;99.90
20726;DHT22;10524;48.132;8.518;2023-05-07T13:22:38;15.40;99.90
20726;DHT22;10524;48.132;8.518;2023-05-07T13:25:04;15.90;99.90
20726;DHT22;10524;48.132;8.518;2023-05-07T13:27:30;17.00;99.90
20726;DHT22;10524;48.132;8.518;2023-05-07T13:29:57;18.20;99.90
20726;DHT22;10524;48.132;8.518;2023-05-07T13:32:24;19.90;99.90
20726;DHT22;10524;48.132;8.518;2023-05-07T13:34:51;20.40;99.90
20726;DHT22;10524;48.132;8.518;2023-05-07T13:37:23;20.60;99.90
20726;DHT22;10524;48.132;8.518;2023-05-07T13:39:49;20.60;99.90
20726;DHT22;10524;48.132;8.518;2023-05-07T13:42:16;20.90;99.90
20726;DHT22;10524;48.132;8.518;2023-05-07T13:44:42;20.90;99.90
20726;DHT22;10524;48.132;8.518;2023-05-07T13:47:09;21.70;99.90
20726;DHT22;10524;48.132;8.518;2023-05-07T13:49:34;22.00;99.90
20726;DHT22;10524;48.132;8.518;2023-05-07T13:52:00;22.30;99.90
20726;DHT22;10524;48.132;8.518;2023-05-07T13:54:26;22.20;99.90
20726;DHT22;10524;48.132;8.518;2023-05-07T13:56:52;22.10;99.90
20726;DHT22;10524;48.132;8.518;2023-05-07T13:59:17;21.70;99.90
20726;DHT22;10524;48.132;8.518;2023-05-07T14:01:43;21.80;99.90
20726;DHT22;10524;48.132;8.518;2023-05-07T14:04:09;21.80;99.90
20726;DHT22;10524;48.132;8.518;2023-05-07T14:06:35;21.70;99.90
20726;DHT22;10524;48.132;8.518;2023-05-07T14:09:00;21.50;99.90
20726;DHT22;10524;48.132;8.518;2023-05-07T14:11:26;21.10;99.90
20726;DHT22;10524;48.132;8.518;2023-05-07T14:13:52;20.80;99.90
20726;DHT22;10524;48.132;8.518;2023-05-07T14:16:17;20.70;99.90
20726;DHT22;10524;48.132;8.518;2023-05-07T14:18:43;20.70;99.90
20726;DHT22;10524;48.132;8.518;2023-05-07T14:21:09;20.50;99.90
20726;DHT22;10524;48.132;8.518;2023-05-07T14:23:35;20.00;99.90
20726;DHT22;10524;48.132;8.518;2023-05-07T14:26:01;19.80;99.90
20726;DHT22;10524;48.132;8.518;2023-05-07T14:28:27;19.30;99.90
20726;DHT22;10524;48.132;8.518;2023-05-07T14:30:53;19.20;99.90
20726;DHT22;10524;48.132;8.518;2023-05-07T14:33:18;18.90;99.90
20726;DHT22;10524;48.132;8.518;2023-05-07T14:35:44;18.80;99.90
20726;DHT22;10524;48.132;8.518;2023-05-07T14:38:14;18.70;99.90
20726;DHT22;10524;48.132;8.518;2023-05-07T14:40:40;18.70;99.90
20726;DHT22;10524;48.132;8.518;2023-05-07T14:43:06;18.60;99.90
20726;DHT22;10524;48.132;8.518;2023-05-07T14:45:31;18.70;99.90
20726;DHT22;10524;48.132;8.518;2023-05-07T14:47:57;18.70;99.90
20726;DHT22;10524;48.132;8.518;2023-05-07T14:50:23;18.30;99.90
20726;DHT22;10524;48.132;8.518;2023-05-07T14:52:48;18.00;99.90
20726;DHT22;10524;48.132;8.518;2023-05-07T14:55:14;17.90;99.90
20726;DHT22;10524;48.132;8.518;2023-05-07T14:57:40;17.70;99.90
20726;DHT22;10524;48.132;8.518;2023-05-07T15:00:06;17.50;99.90
20726;DHT22;10524;48.132;8.518;2023-05-07T15:02:34;17.30;99.90
20726;DHT22;10524;48.132;8.518;2023-05-07T15:05:00;17.00;99.90
20726;DHT22;10524;48.132;8.518;2023-05-07T15:07:25;16.90;99.90
20726;DHT22;10524;48.132;8.518;2023-05-07T15:09:51;16.90;99.90
20726;DHT22;10524;48.132;8.518;2023-05-07T15:12:17;17.00;99.90
20726;DHT22;10524;48.132;8.518;2023-05-07T15:14:43;17.10;99.90
20726;DHT22;10524;48.132;8.518;2023-05-07T15:17:08;17.10;99.90
20726;DHT22;10524;48.132;8.518;2023-05-07T15:19:34;16.90;99.90
20726;DHT22;10524;48.132;8.518;2023-05-07T15:22:00;16.80;99.90
20726;DHT22;10524;48.132;8.518;2023-05-07T15:24:30;16.80;99.90
20726;DHT22;10524;48.132;8.518;2023-05-07T15:26:56;16.80;99.90
20726;DHT22;10524;48.132;8.518;2023-05-07T15:29:23;16.80;99.90
20726;DHT22;10524;48.132;8.518;2023-05-07T15:31:50;16.80;99.90
20726;DHT22;10524;48.132;8.518;2023-05-07T15:34:17;17.00;99.90
20726;DHT22;10524;48.132;8.518;2023-05-07T15:36:43;17.40;99.90
20726;DHT22;10524;48.132;8.518;2023-05-07T15:39:09;17.70;99.90
20726;DHT22;10524;48.132;8.518;2023-05-07T15:41:35;18.10;99.90
20726;DHT22;10524;48.132;8.518;2023-05-07T15:44:02;18.50;99.90
20726;DHT22;10524;48.132;8.518;2023-05-07T15:46:28;19.30;99.90
20726;DHT22;10524;48.132;8.518;2023-05-07T15:48:54;19.80;99.90
20726;DHT22;10524;48.132;8.518;2023-05-07T15:51:21;20.20;99.90
20726;DHT22;10524;48.132;8.518;2023-05-07T15:53:48;20.70;99.90
20726;DHT22;10524;48.132;8.518;2023-05-07T15:56:14;21.40;99.90
20726;DHT22;10524;48.132;8.518;2023-05-07T15:58:39;21.70;99.90